N343BH KSDF-KRMN
Flight info
| Callsign | N343BH |
|---|---|
| Flight time | 0h 58m |
| Altitude | 45000 |
| Route | EEVAA1 SHIPR |
| Aircraft | C750/M-SBDE3FGHRWXY/S |
Departure
| Time | 2026-05-05 23:12 |
|---|---|
| Airport | Louisville Muhammad Ali International Airport (KSDF) |
Arrival
| Time | 2026-05-06 00:11 |
|---|---|
| Airport | Stafford Regional Airport (KRMN) |
| Time | Latitude | Longitude | Altitude | Speed | Heading |
|---|---|---|---|---|---|
| 2026-05-05 22:47 | 38.18389 | -85.72633 | 505 ft | 0 kts | 257° |
| 2026-05-05 23:04 | 38.18386 | -85.72639 | 505 ft | 3 kts | 237° |
| 2026-05-05 23:04 | 38.18358 | -85.72674 | 505 ft | 8 kts | 219° |
| 2026-05-05 23:05 | 38.18328 | -85.72751 | 505 ft | 10 kts | 252° |
| 2026-05-05 23:05 | 38.18270 | -85.72787 | 505 ft | 11 kts | 183° |
| 2026-05-05 23:05 | 38.18158 | -85.72786 | 505 ft | 19 kts | 148° |
| 2026-05-05 23:05 | 38.18008 | -85.72742 | 505 ft | 26 kts | 178° |
| 2026-05-05 23:06 | 38.17841 | -85.72689 | 505 ft | 24 kts | 149° |
| 2026-05-05 23:06 | 38.17674 | -85.72612 | 505 ft | 12 kts | 165° |
| 2026-05-05 23:06 | 38.17577 | -85.72578 | 505 ft | 10 kts | 165° |
| 2026-05-05 23:06 | 38.17474 | -85.72544 | 505 ft | 20 kts | 165° |
| 2026-05-05 23:07 | 38.17342 | -85.72498 | 505 ft | 15 kts | 165° |
| 2026-05-05 23:07 | 38.17205 | -85.72451 | 505 ft | 25 kts | 168° |
| 2026-05-05 23:07 | 38.17060 | -85.72394 | 505 ft | 16 kts | 154° |
| 2026-05-05 23:07 | 38.16998 | -85.72421 | 505 ft | 6 kts | 254° |
| 2026-05-05 23:08 | 38.16997 | -85.72423 | 505 ft | 0 kts | 254° |
| 2026-05-05 23:11 | 38.16993 | -85.72440 | 505 ft | 7 kts | 253° |
| 2026-05-05 23:11 | 38.16979 | -85.72525 | 505 ft | 12 kts | 280° |
| 2026-05-05 23:12 | 38.17129 | -85.72588 | 505 ft | 60 kts | 345° |
| 2026-05-05 23:12 | 38.17900 | -85.72849 | 518 ft | 158 kts | 345° |
| 2026-05-05 23:12 | 38.19144 | -85.73274 | 934 ft | 213 kts | 340° |
| 2026-05-05 23:12 | 38.20462 | -85.74603 | 1348 ft | 266 kts | 298° |
| 2026-05-05 23:13 | 38.20948 | -85.76959 | 1996 ft | 298 kts | 266° |
| 2026-05-05 23:13 | 38.20347 | -85.79604 | 2617 ft | 327 kts | 240° |
| 2026-05-05 23:13 | 38.18898 | -85.81941 | 3184 ft | 350 kts | 220° |
| 2026-05-05 23:13 | 38.16672 | -85.83298 | 3841 ft | 367 kts | 194° |
| 2026-05-05 23:14 | 38.14097 | -85.83265 | 4601 ft | 380 kts | 171° |
| 2026-05-05 23:14 | 38.11654 | -85.81794 | 5420 ft | 397 kts | 147° |
| 2026-05-05 23:14 | 38.09808 | -85.79106 | 6185 ft | 415 kts | 124° |
| 2026-05-05 23:14 | 38.08892 | -85.75590 | 6997 ft | 429 kts | 101° |
| 2026-05-05 23:15 | 38.09072 | -85.71805 | 7819 ft | 439 kts | 78° |
| 2026-05-05 23:15 | 38.09808 | -85.68006 | 8653 ft | 440 kts | 85° |
| 2026-05-05 23:15 | 38.09508 | -85.64233 | 9455 ft | 434 kts | 111° |
| 2026-05-05 23:15 | 38.08060 | -85.60906 | 10284 ft | 433 kts | 134° |
| 2026-05-05 23:16 | 38.05942 | -85.58106 | 11001 ft | 450 kts | 135° |
| 2026-05-05 23:16 | 38.04474 | -85.54520 | 11855 ft | 472 kts | 109° |
| 2026-05-05 23:16 | 38.03772 | -85.50385 | 12850 ft | 478 kts | 108° |
| 2026-05-05 23:16 | 38.02285 | -85.46671 | 13785 ft | 475 kts | 129° |
| 2026-05-05 23:17 | 38.00474 | -85.43167 | 14736 ft | 485 kts | 117° |
| 2026-05-05 23:17 | 37.99520 | -85.39070 | 15747 ft | 492 kts | 106° |
| 2026-05-05 23:17 | 37.98143 | -85.35215 | 16701 ft | 490 kts | 127° |
| 2026-05-05 23:17 | 37.96306 | -85.31633 | 17652 ft | 497 kts | 118° |
| 2026-05-05 23:18 | 37.95421 | -85.27377 | 18615 ft | 504 kts | 97° |
| 2026-05-05 23:18 | 37.94787 | -85.23025 | 19554 ft | 504 kts | 110° |
| 2026-05-05 23:18 | 37.93771 | -85.18836 | 20498 ft | 508 kts | 101° |
| 2026-05-05 23:18 | 37.93277 | -85.14404 | 21478 ft | 508 kts | 104° |
| 2026-05-05 23:19 | 37.92489 | -85.10139 | 22440 ft | 508 kts | 103° |
| 2026-05-05 23:19 | 37.91816 | -85.05755 | 23408 ft | 508 kts | 99° |
| 2026-05-05 23:19 | 37.91858 | -85.01353 | 24357 ft | 507 kts | 81° |
| 2026-05-05 23:19 | 37.92314 | -84.97036 | 25366 ft | 506 kts | 82° |
| 2026-05-05 23:20 | 37.92726 | -84.92652 | 26367 ft | 503 kts | 81° |
| 2026-05-05 23:20 | 37.93116 | -84.88302 | 27276 ft | 503 kts | 81° |
| 2026-05-05 23:20 | 37.93494 | -84.84054 | 27945 ft | 507 kts | 81° |
| 2026-05-05 23:20 | 37.93886 | -84.79632 | 28662 ft | 510 kts | 80° |
| 2026-05-05 23:21 | 37.94243 | -84.75510 | 29334 ft | 508 kts | 80° |
| 2026-05-05 23:21 | 37.94617 | -84.71230 | 30003 ft | 503 kts | 80° |
| 2026-05-05 23:21 | 37.95005 | -84.66774 | 30698 ft | 498 kts | 79° |
| 2026-05-05 23:21 | 37.95368 | -84.62527 | 31364 ft | 492 kts | 79° |
| 2026-05-05 23:22 | 37.95717 | -84.58484 | 31997 ft | 487 kts | 78° |
| 2026-05-05 23:22 | 37.96073 | -84.54281 | 32661 ft | 481 kts | 78° |
| 2026-05-05 23:22 | 37.96405 | -84.50399 | 33284 ft | 475 kts | 77° |
| 2026-05-05 23:22 | 37.96767 | -84.46198 | 34021 ft | 453 kts | 76° |
| 2026-05-05 23:23 | 37.97096 | -84.42566 | 34707 ft | 433 kts | 76° |
| 2026-05-05 23:23 | 37.97430 | -84.38885 | 35426 ft | 413 kts | 75° |
| 2026-05-05 23:23 | 37.97756 | -84.35338 | 35958 ft | 415 kts | 74° |
| 2026-05-05 23:23 | 37.98104 | -84.31678 | 36224 ft | 424 kts | 76° |
| 2026-05-05 23:24 | 37.98449 | -84.27962 | 36527 ft | 432 kts | 76° |
| 2026-05-05 23:24 | 37.98786 | -84.24113 | 36566 ft | 445 kts | 77° |
| 2026-05-05 23:24 | 37.99464 | -84.16486 | 36959 ft | 430 kts | 76° |
| 2026-05-05 23:25 | 37.99885 | -84.11603 | 37288 ft | 406 kts | 75° |
| 2026-05-05 23:25 | 38.00077 | -84.09375 | 37418 ft | 394 kts | 75° |
| 2026-05-05 23:25 | 38.00380 | -84.05993 | 37649 ft | 378 kts | 74° |
| 2026-05-05 23:25 | 38.00659 | -84.02775 | 37879 ft | 362 kts | 74° |
| 2026-05-05 23:26 | 38.00924 | -83.99710 | 38088 ft | 341 kts | 72° |
| 2026-05-05 23:26 | 38.01163 | -83.96871 | 38193 ft | 323 kts | 73° |
| 2026-05-05 23:26 | 38.01353 | -83.94040 | 37678 ft | 335 kts | 76° |
| 2026-05-05 23:26 | 38.01485 | -83.90996 | 37290 ft | 358 kts | 80° |
| 2026-05-05 23:27 | 38.01477 | -83.87949 | 38108 ft | 341 kts | 85° |
| 2026-05-05 23:27 | 38.01405 | -83.85039 | 38676 ft | 329 kts | 77° |
| 2026-05-05 23:27 | 38.01626 | -83.82134 | 38386 ft | 343 kts | 68° |
| 2026-05-05 23:27 | 38.02086 | -83.79255 | 38865 ft | 327 kts | 61° |
| 2026-05-05 23:28 | 38.02652 | -83.76573 | 39570 ft | 308 kts | 57° |
| 2026-05-05 23:28 | 38.03290 | -83.74054 | 39484 ft | 318 kts | 54° |
| 2026-05-05 23:28 | 38.04026 | -83.71311 | 39339 ft | 340 kts | 66° |
| 2026-05-05 23:28 | 38.04234 | -83.68310 | 39732 ft | 354 kts | 92° |
| 2026-05-05 23:29 | 38.03866 | -83.65295 | 39868 ft | 359 kts | 82° |
| 2026-05-05 23:29 | 38.04136 | -83.62218 | 39735 ft | 352 kts | 63° |
| 2026-05-05 23:29 | 38.04498 | -83.59139 | 39804 ft | 372 kts | 79° |
| 2026-05-05 23:29 | 38.04624 | -83.55817 | 39764 ft | 385 kts | 77° |
| 2026-05-05 23:30 | 38.04831 | -83.52502 | 40215 ft | 381 kts | 75° |
| 2026-05-05 23:30 | 38.05093 | -83.49183 | 40623 ft | 380 kts | 75° |
| 2026-05-05 23:30 | 38.05362 | -83.45945 | 41011 ft | 379 kts | 75° |
| 2026-05-05 23:30 | 38.05631 | -83.42638 | 41420 ft | 378 kts | 75° |
| 2026-05-05 23:31 | 38.05901 | -83.39375 | 41818 ft | 376 kts | 75° |
| 2026-05-05 23:31 | 38.06172 | -83.36143 | 42228 ft | 374 kts | 75° |
| 2026-05-05 23:31 | 38.06429 | -83.32976 | 42596 ft | 372 kts | 76° |
| 2026-05-05 23:31 | 38.06700 | -83.29693 | 42954 ft | 369 kts | 76° |
| 2026-05-05 23:32 | 38.06955 | -83.26521 | 43302 ft | 365 kts | 76° |
| 2026-05-05 23:32 | 38.07221 | -83.23303 | 43656 ft | 361 kts | 76° |
| 2026-05-05 23:32 | 38.07465 | -83.20205 | 44025 ft | 356 kts | 76° |
| 2026-05-05 23:32 | 38.07722 | -83.17088 | 44347 ft | 351 kts | 76° |
| 2026-05-05 23:33 | 38.07963 | -83.14051 | 44695 ft | 345 kts | 75° |
| 2026-05-05 23:33 | 38.08199 | -83.11012 | 44958 ft | 342 kts | 78° |
| 2026-05-05 23:33 | 38.08757 | -83.04963 | 44947 ft | 347 kts | 71° |
| 2026-05-05 23:34 | 38.09197 | -83.01972 | 45275 ft | 339 kts | 70° |
| 2026-05-05 23:34 | 38.09694 | -82.99027 | 45298 ft | 342 kts | 68° |
| 2026-05-05 23:34 | 38.10027 | -82.95969 | 44866 ft | 370 kts | 93° |
| 2026-05-05 23:34 | 38.09348 | -82.92718 | 44268 ft | 392 kts | 123° |
| 2026-05-05 23:35 | 38.07750 | -82.90100 | 44896 ft | 364 kts | 141° |
| 2026-05-05 23:35 | 38.06271 | -82.87442 | 44801 ft | 382 kts | 108° |
| 2026-05-05 23:35 | 38.05807 | -82.84139 | 44581 ft | 380 kts | 77° |
| 2026-05-05 23:35 | 38.06377 | -82.81000 | 45073 ft | 350 kts | 56° |
| 2026-05-05 23:36 | 38.07302 | -82.78101 | 44879 ft | 356 kts | 49° |
| 2026-05-05 23:36 | 38.08580 | -82.75436 | 44988 ft | 352 kts | 51° |
| 2026-05-05 23:36 | 38.09365 | -82.72353 | 44992 ft | 379 kts | 75° |
| 2026-05-05 23:36 | 38.09665 | -82.69003 | 44889 ft | 392 kts | 76° |
| 2026-05-05 23:37 | 38.10236 | -82.61985 | 44888 ft | 405 kts | 78° |
| 2026-05-05 23:37 | 38.10814 | -82.54702 | 44915 ft | 420 kts | 77° |
| 2026-05-05 23:38 | 38.11399 | -82.47288 | 44919 ft | 436 kts | 77° |
| 2026-05-05 23:38 | 38.12003 | -82.39548 | 44928 ft | 453 kts | 78° |
| 2026-05-05 23:39 | 38.12635 | -82.31377 | 44909 ft | 470 kts | 79° |
| 2026-05-05 23:39 | 38.13267 | -82.23041 | 44913 ft | 486 kts | 79° |
| 2026-05-05 23:40 | 38.13928 | -82.14315 | 44902 ft | 503 kts | 80° |
| 2026-05-05 23:40 | 38.14597 | -82.05409 | 44898 ft | 519 kts | 80° |
| 2026-05-05 23:41 | 38.15274 | -81.96172 | 44898 ft | 535 kts | 80° |
| 2026-05-05 23:41 | 38.15981 | -81.86624 | 44893 ft | 551 kts | 80° |
| 2026-05-05 23:42 | 38.16685 | -81.76956 | 44907 ft | 565 kts | 80° |
| 2026-05-05 23:42 | 38.17393 | -81.67045 | 44914 ft | 578 kts | 80° |
| 2026-05-05 23:43 | 38.18100 | -81.57030 | 44914 ft | 584 kts | 80° |
| 2026-05-05 23:43 | 38.18826 | -81.46737 | 44919 ft | 586 kts | 80° |
| 2026-05-05 23:44 | 38.19527 | -81.36479 | 44923 ft | 587 kts | 80° |
| 2026-05-05 23:44 | 38.20230 | -81.26211 | 44945 ft | 588 kts | 81° |
| 2026-05-05 23:45 | 38.20925 | -81.15831 | 44935 ft | 587 kts | 81° |
| 2026-05-05 23:45 | 38.21614 | -81.05473 | 44938 ft | 587 kts | 81° |
| 2026-05-05 23:46 | 38.22292 | -80.95205 | 44944 ft | 587 kts | 81° |
| 2026-05-05 23:46 | 38.22960 | -80.84941 | 44954 ft | 587 kts | 81° |
| 2026-05-05 23:47 | 38.23602 | -80.74729 | 44963 ft | 587 kts | 80° |
| 2026-05-05 23:47 | 38.24255 | -80.64403 | 44968 ft | 587 kts | 80° |
| 2026-05-05 23:48 | 38.24898 | -80.54057 | 44954 ft | 585 kts | 81° |
| 2026-05-05 23:48 | 38.25525 | -80.43763 | 45009 ft | 585 kts | 81° |
| 2026-05-05 23:49 | 38.26139 | -80.33532 | 45020 ft | 584 kts | 81° |
| 2026-05-05 23:49 | 38.26751 | -80.23298 | 45000 ft | 584 kts | 82° |
| 2026-05-05 23:50 | 38.27341 | -80.13148 | 45023 ft | 579 kts | 81° |
| 2026-05-05 23:50 | 38.27630 | -80.08170 | 44992 ft | 566 kts | 82° |
| 2026-05-05 23:50 | 38.27899 | -80.03409 | 45011 ft | 553 kts | 81° |
| 2026-05-05 23:51 | 38.28122 | -79.99401 | 44987 ft | 540 kts | 81° |
| 2026-05-05 23:51 | 38.28432 | -79.94033 | 44983 ft | 531 kts | 81° |
| 2026-05-05 23:51 | 38.28957 | -79.84714 | 44952 ft | 521 kts | 81° |
| 2026-05-05 23:52 | 38.29209 | -79.80078 | 43893 ft | 536 kts | 80° |
| 2026-05-05 23:52 | 38.29475 | -79.75312 | 42970 ft | 547 kts | 80° |
| 2026-05-05 23:52 | 38.29742 | -79.70440 | 41663 ft | 553 kts | 80° |
| 2026-05-05 23:52 | 38.29995 | -79.65645 | 40010 ft | 543 kts | 79° |
| 2026-05-05 23:53 | 38.30239 | -79.61008 | 38570 ft | 531 kts | 79° |
| 2026-05-05 23:53 | 38.30493 | -79.56446 | 37176 ft | 520 kts | 79° |
| 2026-05-05 23:53 | 38.30725 | -79.52123 | 35858 ft | 509 kts | 79° |
| 2026-05-05 23:53 | 38.30944 | -79.47889 | 34556 ft | 497 kts | 79° |
| 2026-05-05 23:54 | 38.31163 | -79.43784 | 33329 ft | 487 kts | 79° |
| 2026-05-05 23:54 | 38.31383 | -79.39819 | 32184 ft | 476 kts | 81° |
| 2026-05-05 23:54 | 38.31554 | -79.36725 | 31270 ft | 468 kts | 82° |
| 2026-05-05 23:54 | 38.31720 | -79.33474 | 30284 ft | 459 kts | 84° |
| 2026-05-05 23:55 | 38.31924 | -79.29462 | 28973 ft | 448 kts | 85° |
| 2026-05-05 23:55 | 38.32104 | -79.25597 | 27673 ft | 439 kts | 85° |
| 2026-05-05 23:55 | 38.32292 | -79.21785 | 26360 ft | 430 kts | 85° |
| 2026-05-05 23:55 | 38.32478 | -79.18026 | 25055 ft | 422 kts | 85° |
| 2026-05-05 23:56 | 38.32655 | -79.14410 | 23759 ft | 415 kts | 85° |
| 2026-05-05 23:56 | 38.32820 | -79.11174 | 22739 ft | 429 kts | 85° |
| 2026-05-05 23:56 | 38.32977 | -79.08039 | 21762 ft | 446 kts | 86° |
| 2026-05-05 23:56 | 38.33213 | -79.03403 | 20208 ft | 452 kts | 87° |
| 2026-05-05 23:57 | 38.33402 | -78.99490 | 18970 ft | 447 kts | 88° |
| 2026-05-05 23:57 | 38.33578 | -78.95821 | 17795 ft | 429 kts | 89° |
| 2026-05-05 23:57 | 38.33742 | -78.92358 | 16587 ft | 407 kts | 89° |
| 2026-05-05 23:57 | 38.33882 | -78.89226 | 15451 ft | 391 kts | 89° |
| 2026-05-05 23:58 | 38.34036 | -78.85889 | 14211 ft | 377 kts | 88° |
| 2026-05-05 23:58 | 38.34186 | -78.82645 | 12977 ft | 366 kts | 88° |
| 2026-05-05 23:58 | 38.34338 | -78.79444 | 11742 ft | 356 kts | 88° |
| 2026-05-05 23:58 | 38.34480 | -78.76428 | 11029 ft | 331 kts | 88° |
| 2026-05-05 23:59 | 38.34617 | -78.73503 | 10991 ft | 335 kts | 88° |
| 2026-05-05 23:59 | 38.34752 | -78.70487 | 10993 ft | 345 kts | 89° |
| 2026-05-05 23:59 | 38.34895 | -78.67379 | 10970 ft | 354 kts | 88° |
| 2026-05-05 23:59 | 38.35033 | -78.64297 | 10955 ft | 348 kts | 88° |
| 2026-05-06 00:00 | 38.35173 | -78.61258 | 10947 ft | 342 kts | 88° |
| 2026-05-06 00:00 | 38.35309 | -78.58276 | 10927 ft | 336 kts | 89° |
| 2026-05-06 00:00 | 38.35432 | -78.55519 | 10925 ft | 331 kts | 89° |
| 2026-05-06 00:00 | 38.35561 | -78.52591 | 10940 ft | 326 kts | 89° |
| 2026-05-06 00:01 | 38.35710 | -78.49136 | 10939 ft | 332 kts | 89° |
| 2026-05-06 00:01 | 38.35841 | -78.46114 | 10963 ft | 350 kts | 89° |
| 2026-05-06 00:01 | 38.35981 | -78.42967 | 10970 ft | 366 kts | 88° |
| 2026-05-06 00:01 | 38.36124 | -78.39619 | 10955 ft | 379 kts | 88° |
| 2026-05-06 00:02 | 38.36269 | -78.36236 | 10945 ft | 386 kts | 88° |
| 2026-05-06 00:02 | 38.36418 | -78.32879 | 10911 ft | 368 kts | 89° |
| 2026-05-06 00:02 | 38.36510 | -78.30706 | 10916 ft | 358 kts | 89° |
| 2026-05-06 00:02 | 38.36616 | -78.28221 | 10905 ft | 347 kts | 89° |
| 2026-05-06 00:03 | 38.36741 | -78.25203 | 10925 ft | 336 kts | 89° |
| 2026-05-06 00:03 | 38.36863 | -78.22351 | 10913 ft | 327 kts | 89° |
| 2026-05-06 00:03 | 38.36977 | -78.19542 | 10916 ft | 318 kts | 89° |
| 2026-05-06 00:03 | 38.37091 | -78.16802 | 10906 ft | 311 kts | 89° |
| 2026-05-06 00:04 | 38.37196 | -78.14229 | 10972 ft | 312 kts | 89° |
| 2026-05-06 00:04 | 38.37396 | -78.09330 | 10938 ft | 316 kts | 89° |
| 2026-05-06 00:04 | 38.37510 | -78.06534 | 10929 ft | 311 kts | 89° |
| 2026-05-06 00:05 | 38.37728 | -78.00995 | 10943 ft | 318 kts | 89° |
| 2026-05-06 00:05 | 38.37842 | -77.98160 | 10936 ft | 320 kts | 89° |
| 2026-05-06 00:05 | 38.37956 | -77.95348 | 10940 ft | 323 kts | 89° |
| 2026-05-06 00:06 | 38.38067 | -77.92472 | 10949 ft | 325 kts | 89° |
| 2026-05-06 00:06 | 38.38182 | -77.89563 | 10949 ft | 328 kts | 89° |
| 2026-05-06 00:06 | 38.38291 | -77.86681 | 10954 ft | 329 kts | 89° |
| 2026-05-06 00:06 | 38.38403 | -77.83817 | 10946 ft | 331 kts | 89° |
| 2026-05-06 00:07 | 38.38514 | -77.80885 | 10890 ft | 331 kts | 89° |
| 2026-05-06 00:07 | 38.38630 | -77.77933 | 10925 ft | 330 kts | 89° |
| 2026-05-06 00:07 | 38.38736 | -77.75037 | 10670 ft | 342 kts | 89° |
| 2026-05-06 00:07 | 38.38844 | -77.72197 | 9971 ft | 335 kts | 89° |
| 2026-05-06 00:08 | 38.38956 | -77.69270 | 8883 ft | 328 kts | 89° |
| 2026-05-06 00:08 | 38.39059 | -77.66548 | 7904 ft | 322 kts | 90° |
| 2026-05-06 00:08 | 38.39160 | -77.63769 | 6846 ft | 325 kts | 90° |
| 2026-05-06 00:08 | 38.39256 | -77.61215 | 5635 ft | 332 kts | 91° |
| 2026-05-06 00:09 | 38.39393 | -77.57465 | 3994 ft | 322 kts | 92° |
| 2026-05-06 00:09 | 38.39621 | -77.54672 | 3032 ft | 305 kts | 78° |
| 2026-05-06 00:09 | 38.40431 | -77.52405 | 2249 ft | 257 kts | 67° |
| 2026-05-06 00:09 | 38.41164 | -77.50632 | 1846 ft | 208 kts | 67° |
| 2026-05-06 00:10 | 38.41556 | -77.49538 | 1485 ft | 199 kts | 76° |
| 2026-05-06 00:10 | 38.41705 | -77.47881 | 941 ft | 177 kts | 109° |
| 2026-05-06 00:10 | 38.40958 | -77.46757 | 387 ft | 161 kts | 142° |
| 2026-05-06 00:10 | 38.40161 | -77.45931 | 192 ft | 131 kts | 139° |
| 2026-05-06 00:11 | 38.39619 | -77.45340 | 173 ft | 46 kts | 138° |
| 2026-05-06 00:11 | 38.39548 | -77.45261 | 174 ft | 10 kts | 139° |
| 2026-05-06 00:11 | 38.39469 | -77.45178 | 174 ft | 10 kts | 136° |
| 2026-05-06 00:11 | 38.39400 | -77.45098 | 171 ft | 17 kts | 137° |
| 2026-05-06 00:12 | 38.39330 | -77.45018 | 167 ft | 13 kts | 126° |
| 2026-05-06 00:12 | 38.39347 | -77.44907 | 169 ft | 12 kts | 46° |
| 2026-05-06 00:12 | 38.39349 | -77.44904 | 169 ft | 0 kts | 44° |
| 2026-05-06 00:12 | 38.39355 | -77.44897 | 170 ft | 2 kts | 43° |
| 2026-05-06 00:13 | 38.39358 | -77.44893 | 170 ft | 0 kts | 41° |
| 2026-05-06 00:13 | 38.39383 | -77.44896 | 173 ft | 3 kts | 326° |
| 2026-05-06 00:13 | 38.39398 | -77.44912 | 174 ft | 3 kts | 319° |
| 2026-05-06 00:13 | 38.39445 | -77.44963 | 178 ft | 11 kts | 319° |
| 2026-05-06 00:14 | 38.39479 | -77.45001 | 182 ft | 8 kts | 318° |
| 2026-05-06 00:14 | 38.39520 | -77.45047 | 184 ft | 4 kts | 326° |
| 2026-05-06 00:14 | 38.39554 | -77.45050 | 187 ft | 5 kts | 41° |
| 2026-05-06 00:14 | 38.39570 | -77.45026 | 189 ft | 6 kts | 50° |
| 2026-05-06 00:15 | 38.39636 | -77.45040 | 195 ft | 10 kts | 5° |
| 2026-05-06 00:15 | 38.39673 | -77.45013 | 199 ft | 2 kts | 54° |
| 2026-05-06 00:15 | 38.39676 | -77.45008 | 200 ft | 0 kts | 51° |